Time;durP1;ratioP1;P1;durP2;ratioP2;P2;SDS_P1;SDS_P2;PMS_P1;PMS_P2;Temp;Humidity;BMP_temperature;BMP_pressure;BME280_temperature;BME280_humidity;BME280_pressure;Samples;Min_cycle;Max_cycle;Signal;HPM_P1;HPM_P2
2023/08/11 00:00:08;;;;;;;6.85;3.33;;;;;;;;;;5065926;28;20059;-72
2023/08/11 00:02:36;;;;;;;5.30;3.40;;;;;;;;;;5063293;28;20174;-72
2023/08/11 00:05:04;;;;;;;5.32;3.20;;;;;;;;;;5060037;28;20045;-72
2023/08/11 00:07:31;;;;;;;6.45;3.70;;;;;;;;;;5057411;28;20053;-72
2023/08/11 00:09:58;;;;;;;4.47;3.13;;;;;;;;;;5062543;28;20056;-72
2023/08/11 00:12:26;;;;;;;5.95;3.50;;;;;;;;;;5068559;28;20549;-72
2023/08/11 00:14:54;;;;;;;4.97;3.35;;;;;;;;;;5067065;28;20491;-71
2023/08/11 00:17:21;;;;;;;6.50;3.58;;;;;;;;;;5067655;28;20468;-72
2023/08/11 00:19:49;;;;;;;5.10;3.67;;;;;;;;;;5063914;28;20050;-72
2023/08/11 00:22:16;;;;;;;7.35;3.47;;;;;;;;;;5060351;28;20057;-72
2023/08/11 00:24:43;;;;;;;7.68;3.88;;;;;;;;;;5066859;28;20048;-72
2023/08/11 00:27:10;;;;;;;5.97;3.63;;;;;;;;;;5064266;28;20178;-72
2023/08/11 00:29:38;;;;;;;7.18;3.67;;;;;;;;;;5061817;28;20048;-71
2023/08/11 00:32:07;;;;;;;5.75;3.47;;;;;;;;;;5067574;28;20056;-72
2023/08/11 00:34:34;;;;;;;7.72;3.67;;;;;;;;;;5061679;28;20056;-72
2023/08/11 00:37:01;;;;;;;5.63;3.65;;;;;;;;;;5065731;28;20063;-71
2023/08/11 00:39:29;;;;;;;4.97;3.08;;;;;;;;;;5066769;28;20068;-71
2023/08/11 00:41:56;;;;;;;4.90;3.08;;;;;;;;;;5064636;28;20407;-72
2023/08/11 00:44:23;;;;;;;4.90;3.05;;;;;;;;;;5064761;28;20067;-71
2023/08/11 00:46:51;;;;;;;5.22;3.60;;;;;;;;;;5064989;28;20071;-72
2023/08/11 00:49:20;;;;;;;4.72;3.20;;;;;;;;;;5063588;28;20064;-72
2023/08/11 00:51:47;;;;;;;6.82;3.60;;;;;;;;;;5063184;28;20044;-72
2023/08/11 00:54:15;;;;;;;5.47;3.65;;;;;;;;;;5061611;28;20068;-71
2023/08/11 00:56:44;;;;;;;5.50;3.83;;;;;;;;;;5067690;28;20048;-72
2023/08/11 00:59:11;;;;;;;6.28;3.78;;;;;;;;;;5061121;28;20131;-71
2023/08/11 01:01:40;;;;;;;6.75;3.75;;;;;;;;;;5059982;28;20225;-72
2023/08/11 01:04:08;;;;;;;5.47;3.72;;;;;;;;;;5061832;28;20075;-72
2023/08/11 01:06:41;;;;;;;8.38;4.75;;;;;;;;;;5065099;28;20055;-72
2023/08/11 01:09:13;;;;;;;7.32;4.00;;;;;;;;;;5058650;28;20052;-72
2023/08/11 01:11:43;;;;;;;6.97;3.95;;;;;;;;;;5056550;28;20080;-72
2023/08/11 01:14:13;;;;;;;6.40;4.10;;;;;;;;;;5061846;28;20131;-72
2023/08/11 01:16:41;;;;;;;5.60;3.83;;;;;;;;;;5057961;28;20048;-72
2023/08/11 01:19:10;;;;;;;9.77;4.72;;;;;;;;;;5066419;28;20381;-72
2023/08/11 01:21:40;;;;;;;8.75;4.50;;;;;;;;;;5065094;28;20059;-72
2023/08/11 01:24:10;;;;;;;10.80;4.82;;;;;;;;;;5059397;28;20058;-72
2023/08/11 01:26:37;;;;;;;6.13;4.07;;;;;;;;;;5058484;28;20057;-72
2023/08/11 01:29:05;;;;;;;5.60;3.78;;;;;;;;;;5056071;28;20063;-72
2023/08/11 01:31:32;;;;;;;6.43;4.57;;;;;;;;;;5063393;28;20045;-72
2023/08/11 01:33:59;;;;;;;7.07;4.30;;;;;;;;;;5060287;28;20114;-72
2023/08/11 01:36:28;;;;;;;9.40;5.13;;;;;;;;;;5060495;28;20101;-72
2023/08/11 01:38:55;;;;;;;9.18;4.38;;;;;;;;;;5059230;28;20092;-72
2023/08/11 01:41:23;;;;;;;11.90;5.63;;;;;;;;;;5061541;28;20052;-72
2023/08/11 01:43:52;;;;;;;10.10;4.72;;;;;;;;;;5064350;28;20056;-72
2023/08/11 01:46:19;;;;;;;7.43;5.20;;;;;;;;;;5068494;28;20502;-73
2023/08/11 01:48:47;;;;;;;9.18;5.60;;;;;;;;;;5062890;28;20049;-72
2023/08/11 01:51:14;;;;;;;9.70;5.93;;;;;;;;;;5068734;28;20053;-72
2023/08/11 01:53:41;;;;;;;11.50;6.47;;;;;;;;;;5068930;28;20679;-72
2023/08/11 01:56:10;;;;;;;8.13;5.85;;;;;;;;;;5071708;28;20040;-71
2023/08/11 01:58:38;;;;;;;11.25;5.90;;;;;;;;;;5069702;28;20527;-71
2023/08/11 02:01:07;;;;;;;9.82;6.57;;;;;;;;;;5071368;28;20048;-72
2023/08/11 02:03:34;;;;;;;8.38;5.60;;;;;;;;;;5070620;28;20060;-72
2023/08/11 02:06:02;;;;;;;9.30;6.57;;;;;;;;;;5071029;28;20436;-71
2023/08/11 02:08:29;;;;;;;9.10;6.38;;;;;;;;;;5067036;28;20044;-72
2023/08/11 02:10:56;;;;;;;10.25;7.07;;;;;;;;;;5070664;28;20078;-72
2023/08/11 02:13:23;;;;;;;11.48;6.32;;;;;;;;;;5070606;28;20056;-72
2023/08/11 02:15:52;;;;;;;10.60;7.03;;;;;;;;;;5069368;28;20472;-72
2023/08/11 02:18:19;;;;;;;13.93;7.57;;;;;;;;;;5069709;28;20068;-73
2023/08/11 02:20:47;;;;;;;11.18;7.20;;;;;;;;;;5070257;28;20044;-72
2023/08/11 02:23:14;;;;;;;11.63;6.82;;;;;;;;;;5070655;28;20106;-72
2023/08/11 02:25:41;;;;;;;10.82;6.70;;;;;;;;;;5069766;28;20055;-72
2023/08/11 02:28:08;;;;;;;11.75;6.95;;;;;;;;;;5068463;28;20056;-72
2023/08/11 02:30:36;;;;;;;11.38;7.93;;;;;;;;;;5071154;28;20048;-72
2023/08/11 02:33:05;;;;;;;14.55;9.27;;;;;;;;;;5066278;28;20044;-72
2023/08/11 02:35:33;;;;;;;14.57;8.45;;;;;;;;;;5064018;28;20045;-72
2023/08/11 02:38:00;;;;;;;13.00;8.10;;;;;;;;;;5070138;28;20060;-72
2023/08/11 02:40:28;;;;;;;12.48;7.40;;;;;;;;;;5066079;28;20052;-72
2023/08/11 02:42:56;;;;;;;14.20;8.65;;;;;;;;;;5062915;28;20049;-72
2023/08/11 02:45:23;;;;;;;14.70;9.55;;;;;;;;;;5066034;28;20069;-72
2023/08/11 02:47:51;;;;;;;14.52;8.68;;;;;;;;;;5064347;28;20048;-72
2023/08/11 02:50:20;;;;;;;17.10;9.60;;;;;;;;;;5063446;28;20387;-72
2023/08/11 02:52:47;;;;;;;12.82;8.95;;;;;;;;;;5066634;28;20412;-72
2023/08/11 02:55:14;;;;;;;12.88;8.82;;;;;;;;;;5065945;28;20056;-72
2023/08/11 02:57:42;;;;;;;12.93;8.85;;;;;;;;;;5063915;28;20048;-72
2023/08/11 03:00:13;;;;;;;15.20;8.32;;;;;;;;;;5068326;28;20499;-72
2023/08/11 03:02:40;;;;;;;13.40;8.80;;;;;;;;;;5068702;28;20467;-72
2023/08/11 03:05:09;;;;;;;12.55;7.82;;;;;;;;;;5070073;28;20751;-72
2023/08/11 03:07:39;;;;;;;14.63;7.93;;;;;;;;;;5068123;28;20140;-72
2023/08/11 03:10:06;;;;;;;12.05;8.00;;;;;;;;;;5068216;28;20057;-72
2023/08/11 03:12:34;;;;;;;12.07;8.18;;;;;;;;;;5056747;28;21079;-72
2023/08/11 03:15:02;;;;;;;15.30;8.70;;;;;;;;;;5069812;28;20049;-72
2023/08/11 03:17:29;;;;;;;14.35;9.30;;;;;;;;;;5067701;28;20063;-72
2023/08/11 03:19:57;;;;;;;12.73;7.80;;;;;;;;;;5069953;28;20520;-72
2023/08/11 03:22:24;;;;;;;13.98;8.75;;;;;;;;;;5068653;28;20041;-72
2023/08/11 03:24:53;;;;;;;11.10;7.43;;;;;;;;;;5068628;28;20127;-72
2023/08/11 03:27:20;;;;;;;11.43;7.65;;;;;;;;;;5065760;28;20072;-72
2023/08/11 03:29:47;;;;;;;10.85;7.20;;;;;;;;;;5056566;28;20044;-72
2023/08/11 03:32:14;;;;;;;10.48;6.65;;;;;;;;;;5064511;28;20503;-72
2023/08/11 03:34:42;;;;;;;12.25;8.10;;;;;;;;;;5068673;28;20468;-72
2023/08/11 03:37:09;;;;;;;11.45;8.05;;;;;;;;;;5068172;28;20063;-72
2023/08/11 03:39:36;;;;;;;11.32;7.25;;;;;;;;;;5069280;28;20052;-72
2023/08/11 03:42:05;;;;;;;10.77;7.63;;;;;;;;;;5058989;28;20381;-72
2023/08/11 03:44:33;;;;;;;9.35;6.97;;;;;;;;;;5070045;28;20051;-72
2023/08/11 03:47:00;;;;;;;9.15;6.57;;;;;;;;;;5067637;28;20047;-71
2023/08/11 03:49:27;;;;;;;9.88;6.55;;;;;;;;;;5059639;28;20060;-72
2023/08/11 03:51:54;;;;;;;10.50;6.60;;;;;;;;;;5068263;28;20171;-72
2023/08/11 03:54:22;;;;;;;11.43;7.40;;;;;;;;;;5058375;28;20051;-72
2023/08/11 03:56:49;;;;;;;8.40;6.05;;;;;;;;;;5064515;28;20056;-72
2023/08/11 03:59:18;;;;;;;8.60;5.90;;;;;;;;;;5060059;28;20070;-71
2023/08/11 04:01:45;;;;;;;9.20;6.38;;;;;;;;;;5066288;28;20055;-72
2023/08/11 04:04:12;;;;;;;8.25;5.57;;;;;;;;;;5065561;28;20061;-72
2023/08/11 04:06:39;;;;;;;11.13;6.60;;;;;;;;;;5065057;28;20059;-72
2023/08/11 04:09:07;;;;;;;11.55;7.03;;;;;;;;;;5059269;28;20048;-71
2023/08/11 04:11:34;;;;;;;10.45;6.20;;;;;;;;;;5062222;28;20090;-71
2023/08/11 04:14:02;;;;;;;10.27;6.15;;;;;;;;;;5066044;28;20059;-71
2023/08/11 04:16:30;;;;;;;10.05;6.80;;;;;;;;;;5067763;28;20048;-71
2023/08/11 04:18:58;;;;;;;11.88;6.85;;;;;;;;;;5063069;28;20444;-72
2023/08/11 04:21:25;;;;;;;10.52;6.55;;;;;;;;;;5058864;28;20044;-72
2023/08/11 04:23:52;;;;;;;10.20;5.93;;;;;;;;;;5067191;28;20063;-72
2023/08/11 04:26:19;;;;;;;8.65;6.20;;;;;;;;;;5068737;28;20478;-72
2023/08/11 04:28:47;;;;;;;9.63;6.35;;;;;;;;;;5062360;28;20064;-71
2023/08/11 04:31:14;;;;;;;12.45;5.40;;;;;;;;;;5065154;28;20509;-71
2023/08/11 04:33:43;;;;;;;8.80;6.05;;;;;;;;;;5064038;28;20056;-72
2023/08/11 04:36:10;;;;;;;9.75;6.43;;;;;;;;;;5068469;28;20051;-72
2023/08/11 04:38:37;;;;;;;10.48;6.25;;;;;;;;;;5064365;28;20063;-72
2023/08/11 04:41:04;;;;;;;11.60;6.90;;;;;;;;;;5064909;28;20496;-72
2023/08/11 04:43:32;;;;;;;9.80;6.47;;;;;;;;;;5063155;28;20044;-72
2023/08/11 04:45:59;;;;;;;9.85;6.70;;;;;;;;;;5064882;28;20056;-72
2023/08/11 04:48:26;;;;;;;8.77;6.40;;;;;;;;;;5057718;28;20045;-71
2023/08/11 04:50:55;;;;;;;9.02;6.30;;;;;;;;;;5064199;28;20057;-72
2023/08/11 04:53:22;;;;;;;11.63;6.25;;;;;;;;;;5066529;28;20059;-72
2023/08/11 04:55:51;;;;;;;9.48;6.40;;;;;;;;;;5066540;28;20506;-72
2023/08/11 04:58:18;;;;;;;9.35;6.32;;;;;;;;;;5065386;28;20098;-72
2023/08/11 05:00:45;;;;;;;9.77;6.10;;;;;;;;;;5064369;28;20459;-72
2023/08/11 05:03:12;;;;;;;8.90;6.03;;;;;;;;;;5067521;28;20047;-72
2023/08/11 05:05:41;;;;;;;9.45;5.88;;;;;;;;;;5062475;28;20676;-72
2023/08/11 05:08:09;;;;;;;9.88;6.35;;;;;;;;;;5063354;28;20484;-72
2023/08/11 05:10:37;;;;;;;10.32;6.53;;;;;;;;;;5060034;28;20052;-72
2023/08/11 05:13:05;;;;;;;9.25;5.78;;;;;;;;;;5066176;28;20045;-71
2023/08/11 05:15:32;;;;;;;9.63;6.38;;;;;;;;;;5064375;28;20388;-72
2023/08/11 05:17:59;;;;;;;9.60;5.53;;;;;;;;;;5055235;28;20052;-72
2023/08/11 05:20:26;;;;;;;7.57;5.65;;;;;;;;;;5056601;28;20131;-72
2023/08/11 05:22:54;;;;;;;8.90;5.20;;;;;;;;;;5063078;28;20443;-72
2023/08/11 05:25:23;;;;;;;9.85;5.88;;;;;;;;;;5066145;28;20052;-72
2023/08/11 05:27:50;;;;;;;8.70;5.80;;;;;;;;;;5068183;28;20048;-72
2023/08/11 05:30:18;;;;;;;7.95;5.53;;;;;;;;;;5065937;28;20083;-72
2023/08/11 05:32:45;;;;;;;7.25;5.25;;;;;;;;;;5057260;28;20056;-72
2023/08/11 05:35:13;;;;;;;9.20;6.20;;;;;;;;;;5055451;28;20506;-72
2023/08/11 05:37:41;;;;;;;9.40;5.65;;;;;;;;;;5067724;28;20057;-72
2023/08/11 05:40:09;;;;;;;6.45;4.95;;;;;;;;;;5066943;28;20068;-72
2023/08/11 05:42:38;;;;;;;8.25;5.95;;;;;;;;;;5057798;28;20041;-72
2023/08/11 05:45:07;;;;;;;10.60;5.80;;;;;;;;;;5054390;28;20045;-72
2023/08/11 05:47:34;;;;;;;8.13;5.80;;;;;;;;;;5059423;28;20056;-72
2023/08/11 05:50:02;;;;;;;8.15;5.57;;;;;;;;;;5060779;28;20049;-72
2023/08/11 05:52:29;;;;;;;7.35;5.40;;;;;;;;;;5060198;28;20040;-72
2023/08/11 05:54:56;;;;;;;10.10;5.70;;;;;;;;;;5055133;28;20049;-72
2023/08/11 05:57:23;;;;;;;8.10;5.60;;;;;;;;;;5053439;28;20067;-71
2023/08/11 05:59:52;;;;;;;8.00;5.70;;;;;;;;;;5064247;28;20059;-72
2023/08/11 06:02:19;;;;;;;8.15;5.95;;;;;;;;;;5064454;28;20045;-72
2023/08/11 06:04:47;;;;;;;8.05;5.68;;;;;;;;;;5062990;28;20597;-72
2023/08/11 06:07:15;;;;;;;7.45;5.95;;;;;;;;;;5061259;28;20052;-72
2023/08/11 06:09:42;;;;;;;9.43;6.30;;;;;;;;;;5062110;28;20048;-72
2023/08/11 06:12:09;;;;;;;9.10;5.90;;;;;;;;;;5058511;28;20067;-72
2023/08/11 06:14:36;;;;;;;13.00;6.18;;;;;;;;;;5060236;28;20071;-72
2023/08/11 06:17:05;;;;;;;9.90;6.70;;;;;;;;;;5059326;28;20093;-71
2023/08/11 06:19:32;;;;;;;9.02;5.75;;;;;;;;;;5064394;28;20052;-72
2023/08/11 06:22:00;;;;;;;10.82;5.97;;;;;;;;;;5064074;28;20142;-72
2023/08/11 06:24:29;;;;;;;7.72;5.85;;;;;;;;;;5063797;28;20040;-72
2023/08/11 06:26:56;;;;;;;9.10;6.32;;;;;;;;;;5069592;28;20373;-72
2023/08/11 06:29:24;;;;;;;9.90;6.03;;;;;;;;;;5064754;28;20437;-72
2023/08/11 06:31:51;;;;;;;10.38;6.22;;;;;;;;;;5065779;28;20059;-72
2023/08/11 06:34:21;;;;;;;8.80;5.90;;;;;;;;;;5070790;28;20049;-72
2023/08/11 06:36:49;;;;;;;11.68;6.63;;;;;;;;;;5068414;28;20052;-72
2023/08/11 06:39:16;;;;;;;8.82;5.97;;;;;;;;;;5069839;28;20121;-72
2023/08/11 06:41:43;;;;;;;10.23;6.40;;;;;;;;;;5064845;28;20437;-72
2023/08/11 06:44:11;;;;;;;11.90;6.57;;;;;;;;;;5070621;28;20053;-71
2023/08/11 06:46:38;;;;;;;11.15;6.30;;;;;;;;;;5061425;28;21355;-72
2023/08/11 06:49:06;;;;;;;8.32;5.82;;;;;;;;;;5068721;28;20052;-72
2023/08/11 06:51:34;;;;;;;11.05;5.95;;;;;;;;;;5065454;28;20121;-72
2023/08/11 06:54:02;;;;;;;7.75;5.40;;;;;;;;;;5068725;28;20044;-72
2023/08/11 06:56:29;;;;;;;8.63;5.82;;;;;;;;;;5061135;28;20048;-71
2023/08/11 06:58:57;;;;;;;9.60;5.93;;;;;;;;;;5065599;28;20049;-72
2023/08/11 07:01:24;;;;;;;9.10;5.78;;;;;;;;;;5066264;28;20059;-71
2023/08/11 07:03:51;;;;;;;8.50;5.85;;;;;;;;;;5063099;28;20068;-71
2023/08/11 07:06:19;;;;;;;9.40;5.50;;;;;;;;;;5060111;28;20060;-71
2023/08/11 07:08:47;;;;;;;7.97;5.35;;;;;;;;;;5057569;28;20064;-71
2023/08/11 07:11:14;;;;;;;10.38;5.18;;;;;;;;;;5064073;28;20081;-72
2023/08/11 07:13:42;;;;;;;8.25;5.32;;;;;;;;;;5062698;28;20049;-71
2023/08/11 07:16:09;;;;;;;9.82;5.18;;;;;;;;;;5065305;28;20052;-72
2023/08/11 07:18:36;;;;;;;8.73;5.22;;;;;;;;;;5068644;28;20131;-72
2023/08/11 07:21:04;;;;;;;7.32;5.20;;;;;;;;;;5066910;28;20079;-72
2023/08/11 07:23:31;;;;;;;8.30;5.03;;;;;;;;;;5064310;28;20060;-72
2023/08/11 07:25:59;;;;;;;8.20;4.35;;;;;;;;;;5064952;28;20405;-72
2023/08/11 07:28:27;;;;;;;9.07;4.70;;;;;;;;;;5064943;28;20496;-72
2023/08/11 07:30:54;;;;;;;8.13;5.05;;;;;;;;;;5068561;28;20098;-72
2023/08/11 07:33:22;;;;;;;9.65;5.43;;;;;;;;;;5068506;28;20045;-72
2023/08/11 07:35:49;;;;;;;9.57;5.00;;;;;;;;;;5070100;28;20053;-71
2023/08/11 07:38:16;;;;;;;10.82;4.55;;;;;;;;;;5068984;28;20048;-71
2023/08/11 07:40:43;;;;;;;7.18;4.97;;;;;;;;;;5068514;28;20052;-71
2023/08/11 07:43:12;;;;;;;9.60;4.68;;;;;;;;;;5067526;28;20605;-72
2023/08/11 07:45:39;;;;;;;10.57;4.95;;;;;;;;;;5068363;28;20052;-71
2023/08/11 07:48:07;;;;;;;6.70;4.55;;;;;;;;;;5065940;28;20056;-71
2023/08/11 07:50:36;;;;;;;7.50;4.97;;;;;;;;;;5069709;28;20048;-72
2023/08/11 07:53:04;;;;;;;9.20;4.70;;;;;;;;;;5069338;28;20055;-71
2023/08/11 07:55:31;;;;;;;5.82;4.25;;;;;;;;;;5069491;28;20044;-72
2023/08/11 07:57:58;;;;;;;11.13;5.00;;;;;;;;;;5063292;28;20075;-72
2023/08/11 08:00:27;;;;;;;7.43;4.35;;;;;;;;;;5067737;28;20048;-72
2023/08/11 08:02:54;;;;;;;10.00;5.03;;;;;;;;;;5066079;28;20080;-72
2023/08/11 08:05:22;;;;;;;8.43;4.70;;;;;;;;;;5067806;28;20076;-72
2023/08/11 08:07:49;;;;;;;8.05;4.35;;;;;;;;;;5065370;28;20040;-73
2023/08/11 08:10:17;;;;;;;8.82;5.35;;;;;;;;;;5066905;28;20474;-72
2023/08/11 08:12:45;;;;;;;10.00;4.85;;;;;;;;;;5061872;28;20498;-72
2023/08/11 08:15:14;;;;;;;8.90;5.05;;;;;;;;;;5063030;28;20052;-72
2023/08/11 08:17:42;;;;;;;7.13;4.43;;;;;;;;;;5063340;28;20075;-72
2023/08/11 08:20:13;;;;;;;7.85;4.72;;;;;;;;;;5058051;28;20067;-72
2023/08/11 08:22:41;;;;;;;10.30;4.40;;;;;;;;;;5063153;28;20142;-72
2023/08/11 08:25:08;;;;;;;8.45;4.55;;;;;;;;;;5064412;28;20393;-72
2023/08/11 08:27:36;;;;;;;6.65;4.35;;;;;;;;;;5055093;28;20051;-72
2023/08/11 08:30:03;;;;;;;11.75;4.90;;;;;;;;;;5063706;28;20060;-72
2023/08/11 08:32:30;;;;;;;7.88;4.15;;;;;;;;;;5060842;28;20462;-71
2023/08/11 08:34:59;;;;;;;10.50;4.10;;;;;;;;;;5067400;28;20487;-72
2023/08/11 08:37:28;;;;;;;7.30;4.10;;;;;;;;;;5065370;28;20052;-71
2023/08/11 08:39:55;;;;;;;8.55;4.25;;;;;;;;;;5067081;28;20139;-73
2023/08/11 08:42:23;;;;;;;7.45;3.55;;;;;;;;;;5062934;28;20067;-73
2023/08/11 08:44:51;;;;;;;6.13;3.72;;;;;;;;;;5065321;28;20056;-72
2023/08/11 08:47:19;;;;;;;6.13;3.92;;;;;;;;;;5065713;28;20059;-72
2023/08/11 08:49:46;;;;;;;16.20;3.65;;;;;;;;;;5064381;28;20060;-72
2023/08/11 08:52:15;;;;;;;6.90;3.45;;;;;;;;;;5066573;28;20480;-72
2023/08/11 08:54:43;;;;;;;9.27;3.60;;;;;;;;;;5064839;28;20087;-72
2023/08/11 08:57:10;;;;;;;6.32;3.42;;;;;;;;;;5068685;28;20058;-72
2023/08/11 08:59:38;;;;;;;6.30;3.10;;;;;;;;;;5059445;28;20049;-72
2023/08/11 09:02:06;;;;;;;4.75;3.20;;;;;;;;;;5062558;28;20045;-72
2023/08/11 09:04:33;;;;;;;6.47;3.60;;;;;;;;;;5061548;28;20131;-71
2023/08/11 09:07:01;;;;;;;5.35;3.40;;;;;;;;;;5064078;28;20059;-72
2023/08/11 09:09:30;;;;;;;4.70;3.10;;;;;;;;;;5065807;28;20490;-72
2023/08/11 09:11:58;;;;;;;6.28;3.80;;;;;;;;;;5056770;28;20191;-71
2023/08/11 09:14:25;;;;;;;6.18;3.50;;;;;;;;;;5059552;28;20067;-72
2023/08/11 09:16:54;;;;;;;7.35;3.17;;;;;;;;;;5061672;28;20063;-72
2023/08/11 09:19:23;;;;;;;6.35;3.45;;;;;;;;;;5060136;28;20148;-72
2023/08/11 09:21:50;;;;;;;4.85;3.10;;;;;;;;;;5066954;28;20055;-72
2023/08/11 09:24:17;;;;;;;8.52;3.50;;;;;;;;;;5067835;28;20056;-72
2023/08/11 09:26:49;;;;;;;9.45;3.42;;;;;;;;;;5063130;28;20522;-71
2023/08/11 09:29:17;;;;;;;6.90;3.67;;;;;;;;;;5061550;28;20041;-71
2023/08/11 09:31:47;;;;;;;6.70;3.42;;;;;;;;;;5065764;28;20198;-72
2023/08/11 09:34:16;;;;;;;6.47;3.33;;;;;;;;;;5068289;28;20045;-72
2023/08/11 09:36:43;;;;;;;6.35;3.30;;;;;;;;;;5065765;28;20076;-72
2023/08/11 09:39:11;;;;;;;5.47;3.30;;;;;;;;;;5068271;28;20044;-71
2023/08/11 09:41:42;;;;;;;11.68;3.38;;;;;;;;;;5061569;28;20060;-72
2023/08/11 09:44:11;;;;;;;7.28;3.28;;;;;;;;;;5063081;28;20059;-72
2023/08/11 09:46:39;;;;;;;6.32;2.97;;;;;;;;;;5062377;28;20053;-71
2023/08/11 09:49:07;;;;;;;5.38;3.30;;;;;;;;;;5063519;28;20052;-73
2023/08/11 09:51:35;;;;;;;5.78;2.90;;;;;;;;;;5065050;28;20053;-72
2023/08/11 09:54:04;;;;;;;8.93;3.00;;;;;;;;;;5067524;28;20049;-72
2023/08/11 09:56:33;;;;;;;5.93;3.47;;;;;;;;;;5065242;28;20048;-71
2023/08/11 09:59:01;;;;;;;5.47;3.00;;;;;;;;;;5064911;28;20059;-72
2023/08/11 10:01:31;;;;;;;5.47;2.97;;;;;;;;;;5068761;28;20047;-71
2023/08/11 10:04:00;;;;;;;6.38;3.08;;;;;;;;;;5069895;28;20407;-72
2023/08/11 10:06:29;;;;;;;6.60;2.80;;;;;;;;;;5061587;28;20102;-71
2023/08/11 10:08:58;;;;;;;5.30;3.08;;;;;;;;;;5063204;28;20059;-71
2023/08/11 10:11:26;;;;;;;5.40;2.83;;;;;;;;;;5062853;28;20055;-72
2023/08/11 10:13:54;;;;;;;6.68;2.80;;;;;;;;;;5065109;28;20496;-72
2023/08/11 10:16:22;;;;;;;5.55;2.72;;;;;;;;;;5058482;28;20218;-72
2023/08/11 10:18:51;;;;;;;6.20;3.22;;;;;;;;;;5067163;28;20070;-72
2023/08/11 10:21:19;;;;;;;6.10;2.90;;;;;;;;;;5066261;28;20061;-73
2023/08/11 10:23:46;;;;;;;6.18;3.25;;;;;;;;;;5066272;28;20131;-73
2023/08/11 10:26:13;;;;;;;4.47;2.95;;;;;;;;;;5066293;28;20058;-72
2023/08/11 10:28:41;;;;;;;3.90;2.70;;;;;;;;;;5064699;28;20530;-72
2023/08/11 10:31:09;;;;;;;4.63;2.65;;;;;;;;;;5068385;28;20135;-72
2023/08/11 10:33:36;;;;;;;7.13;3.00;;;;;;;;;;5067601;28;20041;-72
2023/08/11 10:36:06;;;;;;;6.72;2.85;;;;;;;;;;5069199;28;20044;-72
2023/08/11 10:38:34;;;;;;;5.53;2.72;;;;;;;;;;5063353;28;20190;-74
2023/08/11 10:41:01;;;;;;;6.82;2.47;;;;;;;;;;5063510;28;20053;-72
2023/08/11 10:43:31;;;;;;;6.88;2.63;;;;;;;;;;5070139;28;20052;-74
2023/08/11 10:45:58;;;;;;;5.78;2.63;;;;;;;;;;5065223;28;20060;-72
2023/08/11 10:48:25;;;;;;;4.20;2.40;;;;;;;;;;5064409;28;20056;-72
2023/08/11 10:50:52;;;;;;;4.70;2.60;;;;;;;;;;5069481;28;20040;-72
2023/08/11 10:53:22;;;;;;;4.90;2.63;;;;;;;;;;5069906;28;20044;-72
2023/08/11 10:56:00;;;;;;;5.88;2.72;;;;;;;;;;5069751;28;21107;-72
2023/08/11 10:58:27;;;;;;;6.28;3.33;;;;;;;;;;5064517;28;20048;-76
2023/08/11 11:00:54;;;;;;;4.95;2.60;;;;;;;;;;5060188;28;20063;-71
2023/08/11 11:03:22;;;;;;;5.68;2.85;;;;;;;;;;5066208;28;20044;-72
2023/08/11 11:05:50;;;;;;;3.13;2.33;;;;;;;;;;5064443;28;20059;-72
2023/08/11 11:08:17;;;;;;;4.20;2.10;;;;;;;;;;5064165;28;20053;-71
2023/08/11 11:10:45;;;;;;;6.30;2.55;;;;;;;;;;5065499;28;20052;-72
2023/08/11 11:13:13;;;;;;;4.68;2.53;;;;;;;;;;5062287;28;20049;-75
2023/08/11 11:15:40;;;;;;;3.97;2.17;;;;;;;;;;5067715;28;20049;-74
2023/08/11 11:18:07;;;;;;;4.70;2.30;;;;;;;;;;5064809;28;20049;-73
2023/08/11 11:20:35;;;;;;;4.90;2.65;;;;;;;;;;5062358;28;20052;-72
2023/08/11 11:23:02;;;;;;;5.18;2.58;;;;;;;;;;5064187;28;20059;-72
2023/08/11 11:25:30;;;;;;;4.15;2.53;;;;;;;;;;5066563;28;20086;-73
2023/08/11 11:27:58;;;;;;;3.13;1.98;;;;;;;;;;5069160;28;20110;-74
2023/08/11 11:30:26;;;;;;;5.65;2.50;;;;;;;;;;5066358;28;20048;-72
2023/08/11 11:32:54;;;;;;;3.15;1.98;;;;;;;;;;5069038;28;20118;-72
2023/08/11 11:35:21;;;;;;;4.50;2.65;;;;;;;;;;5067720;28;20076;-73
2023/08/11 11:37:48;;;;;;;3.97;2.33;;;;;;;;;;5070058;28;20059;-74
2023/08/11 11:40:16;;;;;;;6.25;2.38;;;;;;;;;;5067406;28;20056;-73
2023/08/11 11:42:43;;;;;;;4.10;2.30;;;;;;;;;;5067817;28;20077;-73
2023/08/11 11:45:12;;;;;;;4.43;3.03;;;;;;;;;;5062464;28;20102;-72
2023/08/11 11:47:40;;;;;;;4.07;2.53;;;;;;;;;;5067226;28;20060;-72
2023/08/11 11:50:08;;;;;;;7.50;2.70;;;;;;;;;;5062385;28;20549;-72
2023/08/11 11:52:36;;;;;;;4.57;3.05;;;;;;;;;;5064663;28;20064;-75
2023/08/11 11:55:05;;;;;;;4.13;2.83;;;;;;;;;;5068673;28;20442;-72
2023/08/11 11:57:33;;;;;;;5.63;2.90;;;;;;;;;;5068188;28;20049;-72
2023/08/11 12:00:02;;;;;;;3.95;2.95;;;;;;;;;;5058888;28;20138;-74
2023/08/11 12:02:32;;;;;;;9.55;3.60;;;;;;;;;;5062566;28;20561;-74
2023/08/11 12:04:59;;;;;;;4.90;3.15;;;;;;;;;;5064181;28;20133;-75
2023/08/11 12:07:31;;;;;;;7.85;3.42;;;;;;;;;;5068200;28;20061;-74
2023/08/11 12:09:58;;;;;;;5.82;2.85;;;;;;;;;;5060445;28;20047;-73
2023/08/11 12:12:26;;;;;;;5.90;3.40;;;;;;;;;;5066628;28;20134;-72
2023/08/11 12:14:54;;;;;;;7.93;3.97;;;;;;;;;;5064687;28;20114;-72
2023/08/11 12:17:22;;;;;;;6.60;3.45;;;;;;;;;;5067983;28;20044;-74
2023/08/11 12:19:52;;;;;;;5.78;3.15;;;;;;;;;;5062596;28;20052;-73
2023/08/11 12:22:20;;;;;;;4.57;3.40;;;;;;;;;;5066871;28;20586;-72
2023/08/11 12:24:47;;;;;;;6.97;3.50;;;;;;;;;;5068554;28;20610;-72
2023/08/11 12:27:14;;;;;;;7.35;3.50;;;;;;;;;;5067154;28;20052;-73
2023/08/11 12:29:41;;;;;;;6.32;3.75;;;;;;;;;;5066413;28;20403;-73
2023/08/11 12:32:08;;;;;;;5.80;4.10;;;;;;;;;;5066009;28;20598;-73
2023/08/11 12:34:36;;;;;;;9.07;4.05;;;;;;;;;;5064416;28;20064;-72
2023/08/11 12:37:05;;;;;;;6.88;4.30;;;;;;;;;;5066488;28;20080;-72
2023/08/11 12:39:32;;;;;;;6.82;4.57;;;;;;;;;;5063119;28;20079;-76
2023/08/11 12:41:59;;;;;;;6.35;4.93;;;;;;;;;;5064600;28;20052;-73
2023/08/11 12:44:27;;;;;;;5.85;4.18;;;;;;;;;;5065404;28;20051;-72
2023/08/11 12:46:54;;;;;;;8.30;4.78;;;;;;;;;;5063469;28;20048;-74
2023/08/11 12:49:21;;;;;;;10.57;5.10;;;;;;;;;;5065129;28;20052;-72
2023/08/11 12:51:51;;;;;;;6.20;4.70;;;;;;;;;;5064373;28;20044;-75
2023/08/11 12:54:19;;;;;;;12.07;6.10;;;;;;;;;;5061238;28;20056;-72
2023/08/11 12:56:47;;;;;;;7.55;4.90;;;;;;;;;;5068414;28;20048;-72
2023/08/11 12:59:14;;;;;;;7.55;5.20;;;;;;;;;;5065598;28;20092;-73
2023/08/11 13:01:41;;;;;;;6.75;5.40;;;;;;;;;;5061670;28;20041;-72
2023/08/11 13:04:08;;;;;;;12.55;5.70;;;;;;;;;;5063313;28;20503;-73
2023/08/11 13:06:36;;;;;;;9.52;6.35;;;;;;;;;;5065493;28;20063;-72
2023/08/11 13:09:03;;;;;;;8.55;5.38;;;;;;;;;;5061136;28;20519;-71
2023/08/11 13:11:32;;;;;;;9.10;4.90;;;;;;;;;;5059698;28;20515;-73
2023/08/11 13:13:59;;;;;;;9.45;5.05;;;;;;;;;;5056773;28;20056;-71
2023/08/11 13:16:26;;;;;;;7.40;4.78;;;;;;;;;;5066439;28;20048;-72
2023/08/11 13:18:53;;;;;;;11.93;5.07;;;;;;;;;;5058774;28;20055;-72
2023/08/11 13:21:21;;;;;;;7.78;4.85;;;;;;;;;;5063948;28;20122;-72
2023/08/11 13:23:48;;;;;;;11.35;5.05;;;;;;;;;;5066769;28;20040;-72
2023/08/11 13:26:15;;;;;;;7.15;4.85;;;;;;;;;;5068327;28;20040;-72
2023/08/11 13:28:44;;;;;;;8.65;5.15;;;;;;;;;;5065813;28;20044;-73
2023/08/11 13:31:11;;;;;;;7.57;5.22;;;;;;;;;;5068795;28;20051;-72
2023/08/11 13:33:39;;;;;;;8.02;5.53;;;;;;;;;;5066660;28;20060;-72
2023/08/11 13:36:08;;;;;;;12.88;5.53;;;;;;;;;;5065378;28;20044;-72
2023/08/11 13:38:35;;;;;;;9.27;5.28;;;;;;;;;;5060740;28;20053;-72
2023/08/11 13:41:02;;;;;;;8.30;5.60;;;;;;;;;;5064555;28;20127;-72
2023/08/11 13:43:30;;;;;;;7.70;5.78;;;;;;;;;;5070800;28;20498;-75
2023/08/11 13:45:59;;;;;;;6.95;5.18;;;;;;;;;;5067050;28;20119;-73
2023/08/11 13:48:26;;;;;;;7.95;4.50;;;;;;;;;;5070232;28;20056;-73
2023/08/11 13:50:53;;;;;;;7.18;4.97;;;;;;;;;;5070505;28;20147;-73
2023/08/11 13:53:21;;;;;;;6.97;4.57;;;;;;;;;;5071207;28;20403;-73
2023/08/11 13:55:48;;;;;;;5.50;4.25;;;;;;;;;;5071666;28;20052;-72
2023/08/11 13:58:16;;;;;;;5.18;3.75;;;;;;;;;;5069791;28;20488;-73
2023/08/11 14:00:43;;;;;;;5.43;3.42;;;;;;;;;;5069102;28;20072;-73
2023/08/11 14:03:12;;;;;;;6.95;4.18;;;;;;;;;;5066890;28;20055;-72
2023/08/11 14:05:39;;;;;;;7.68;3.70;;;;;;;;;;5067544;28;20053;-72
2023/08/11 14:08:06;;;;;;;4.25;3.28;;;;;;;;;;5060719;28;20518;-72
2023/08/11 14:10:33;;;;;;;6.55;3.60;;;;;;;;;;5069258;28;20488;-72
2023/08/11 14:13:04;;;;;;;9.68;3.90;;;;;;;;;;5065989;28;20044;-72
2023/08/11 14:15:31;;;;;;;7.85;4.25;;;;;;;;;;5069174;28;20058;-72
2023/08/11 14:17:58;;;;;;;6.45;4.05;;;;;;;;;;5065546;28;20055;-72
2023/08/11 14:20:27;;;;;;;7.07;4.10;;;;;;;;;;5065272;28;20056;-73
2023/08/11 14:22:54;;;;;;;8.73;4.03;;;;;;;;;;5070126;28;20132;-72
2023/08/11 14:25:21;;;;;;;8.68;3.72;;;;;;;;;;5067492;28;20055;-73
2023/08/11 14:27:49;;;;;;;6.57;3.20;;;;;;;;;;5066292;28;20402;-73
2023/08/11 14:30:16;;;;;;;7.07;3.15;;;;;;;;;;5060427;28;20044;-72
2023/08/11 14:32:43;;;;;;;8.05;3.45;;;;;;;;;;5066859;28;20074;-73
2023/08/11 14:35:11;;;;;;;5.63;2.80;;;;;;;;;;5066935;28;20045;-72
2023/08/11 14:37:39;;;;;;;5.38;3.00;;;;;;;;;;5065867;28;20053;-74
2023/08/11 14:40:07;;;;;;;5.78;2.67;;;;;;;;;;5062394;28;20053;-72
2023/08/11 14:42:35;;;;;;;6.38;2.47;;;;;;;;;;5064928;28;20053;-72